Time;durP1;ratioP1;P1;durP2;ratioP2;P2;SDS_P1;SDS_P2;PMS_P1;PMS_P2;Temp;Humidity;BMP_temperature;BMP_pressure;BME280_temperature;BME280_humidity;BME280_pressure;Samples;Min_cycle;Max_cycle;Signal;HPM_P1;HPM_P2
2022/07/08 00:00:44;;;;;;;1.80;0.90;;;;;;;13.52;74.73;99111.64;104621;1274;61195;-24
2022/07/08 00:03:11;;;;;;;2.40;1.00;;;;;;;13.36;74.20;99116.23;105015;1271;75606;-24
2022/07/08 00:05:38;;;;;;;1.90;1.00;;;;;;;12.99;75.01;99117.45;105106;1274;76963;-24
2022/07/08 00:08:06;;;;;;;2.90;1.20;;;;;;;12.53;77.02;99116.37;104786;1271;73313;-24
2022/07/08 00:10:33;;;;;;;2.30;0.90;;;;;;;12.29;77.75;99115.67;104777;1274;62082;-24
2022/07/08 00:13:01;;;;;;;1.70;0.80;;;;;;;12.14;78.86;99119.41;104790;1271;61132;-24
2022/07/08 00:15:29;;;;;;;0.90;0.80;;;;;;;12.50;78.61;99120.56;104891;1271;75578;-24
2022/07/08 00:17:57;;;;;;;3.10;1.20;;;;;;;12.95;76.69;99118.31;104730;1274;75722;-24
2022/07/08 00:20:25;;;;;;;1.30;1.00;;;;;;;12.97;76.21;99119.95;104645;1274;75195;-24
2022/07/08 00:22:55;;;;;;;4.10;1.20;;;;;;;12.77;76.36;99117.66;104795;1271;61686;-24
2022/07/08 00:25:22;;;;;;;3.90;1.10;;;;;;;12.52;77.16;99117.26;104766;1271;61025;-24
2022/07/08 00:27:50;;;;;;;2.20;1.10;;;;;;;12.29;78.13;99120.86;104857;1274;76324;-24
2022/07/08 00:30:17;;;;;;;2.10;0.70;;;;;;;12.13;78.90;99125.58;105090;1274;76941;-24
2022/07/08 00:32:44;;;;;;;1.40;0.90;;;;;;;12.58;78.45;99125.63;105080;1274;73288;-24
2022/07/08 00:35:12;;;;;;;2.40;1.00;;;;;;;13.15;76.50;99129.11;104809;1273;63429;-24
2022/07/08 00:37:39;;;;;;;1.50;1.10;;;;;;;13.22;75.89;99126.41;104777;1271;61160;-24
2022/07/08 00:40:07;;;;;;;1.80;1.10;;;;;;;13.06;75.64;99122.08;104733;1272;76381;-24
2022/07/08 00:42:34;;;;;;;2.50;1.30;;;;;;;12.80;75.16;99121.63;104851;1271;77195;-24
2022/07/08 00:45:02;;;;;;;1.50;1.30;;;;;;;12.56;76.34;99122.64;104722;1274;75275;-24
2022/07/08 00:47:29;;;;;;;1.10;0.70;;;;;;;12.37;77.04;99119.09;104920;1274;64430;-24
2022/07/08 00:49:56;;;;;;;5.90;1.10;;;;;;;12.72;76.54;99115.65;105097;1271;63078;-24
2022/07/08 00:52:24;;;;;;;1.00;0.90;;;;;;;13.16;74.86;99114.00;104809;1272;76444;-24
2022/07/08 00:54:51;;;;;;;2.20;1.10;;;;;;;13.16;74.79;99114.52;104655;1275;76793;-24
2022/07/08 00:57:18;;;;;;;1.20;1.00;;;;;;;12.93;74.93;99110.21;104894;1271;75353;-24
2022/07/08 01:01:15;;;;;;;1.20;1.00;;;;;;;12.42;74.67;99109.27;101717;1309;600201;-23
2022/07/08 01:03:44;;;;;;;2.00;1.10;;;;;;;12.10;75.82;99106.50;103788;1287;62755;-23
2022/07/08 01:06:12;;;;;;;0.90;0.60;;;;;;;11.93;77.19;99106.54;103966;1283;62908;-23
2022/07/08 01:08:40;;;;;;;1.10;0.80;;;;;;;12.37;77.80;99101.19;103907;1287;75065;-23
2022/07/08 01:11:08;;;;;;;2.50;1.00;;;;;;;12.88;75.82;99103.08;104246;1283;74990;-24
2022/07/08 01:13:36;;;;;;;1.20;0.90;;;;;;;12.93;75.07;99102.99;103550;1284;75403;-23
2022/07/08 01:16:04;;;;;;;1.50;0.90;;;;;;;12.68;73.48;99101.90;103962;1283;350775;-23
2022/07/08 01:18:32;;;;;;;2.00;1.10;;;;;;;12.31;74.60;99102.25;103983;1284;61888;-23
2022/07/08 01:21:00;;;;;;;2.00;1.20;;;;;;;12.03;76.28;99105.50;104395;1281;74972;-23
2022/07/08 01:23:28;;;;;;;1.20;0.70;;;;;;;11.81;77.09;99105.51;103886;1281;76127;-23
2022/07/08 01:25:55;;;;;;;2.70;0.80;;;;;;;12.11;76.91;99105.30;103800;1283;74690;-23
2022/07/08 01:28:22;;;;;;;2.40;1.10;;;;;;;12.57;75.90;99107.79;103851;1281;61992;-23
2022/07/08 01:30:50;;;;;;;2.00;0.90;;;;;;;12.61;75.22;99107.79;104098;1283;62843;-23
2022/07/08 01:33:17;;;;;;;2.90;1.10;;;;;;;12.42;75.36;99107.52;104338;1281;74746;-23
2022/07/08 01:35:45;;;;;;;6.20;1.20;;;;;;;12.16;75.70;99106.16;104179;1283;77033;-23
2022/07/08 01:38:14;;;;;;;1.50;0.90;;;;;;;11.87;75.66;99108.08;104310;1283;73573;-24
2022/07/08 01:40:41;;;;;;;4.10;0.90;;;;;;;11.60;76.47;99106.19;103830;1283;61831;-22
2022/07/08 01:43:09;;;;;;;0.70;0.60;;;;;;;11.84;76.26;99107.58;104373;1281;62747;-23
2022/07/08 01:45:36;;;;;;;2.60;1.10;;;;;;;12.25;75.53;99100.69;104426;1283;75900;-23
2022/07/08 01:48:03;;;;;;;2.10;1.20;;;;;;;12.25;75.90;99102.54;104406;1281;77073;-23
2022/07/08 01:50:31;;;;;;;3.10;1.20;;;;;;;12.06;76.43;99104.36;104413;1283;75406;-23
2022/07/08 01:52:58;;;;;;;2.20;1.10;;;;;;;11.79;77.01;99108.36;104217;1281;61856;-23
2022/07/08 01:55:26;;;;;;;1.50;1.20;;;;;;;11.53;77.84;99106.38;104214;1286;63063;-23
2022/07/08 01:57:53;;;;;;;1.20;0.80;;;;;;;11.36;78.86;99107.83;103875;1285;74872;-23
2022/07/08 02:00:21;;;;;;;1.30;0.90;;;;;;;11.78;78.94;99107.30;103830;1284;76022;-23
2022/07/08 02:02:48;;;;;;;1.40;1.00;;;;;;;12.33;77.93;99109.92;103956;1283;75440;-23
2022/07/08 02:05:15;;;;;;;1.60;1.20;;;;;;;12.44;76.91;99112.58;104237;1283;63195;-24
2022/07/08 02:07:43;;;;;;;1.70;1.20;;;;;;;12.32;76.92;99106.88;103947;1283;61129;-23
2022/07/08 02:10:11;;;;;;;1.60;1.10;;;;;;;12.11;76.77;99108.62;103788;1284;75872;-23
2022/07/08 02:12:39;;;;;;;2.70;1.20;;;;;;;11.88;76.97;99107.48;103832;1283;76910;-23
2022/07/08 02:15:07;;;;;;;3.20;0.80;;;;;;;11.69;76.75;99113.38;103748;1283;75429;-25
2022/07/08 02:17:39;;;;;;;1.00;0.70;;;;;;;12.08;76.07;99113.21;103720;1284;61798;-23
2022/07/08 02:20:09;;;;;;;1.70;0.90;;;;;;;12.57;74.09;99110.95;103765;1283;61224;-23
2022/07/08 02:22:36;;;;;;;1.90;0.90;;;;;;;12.55;72.71;99112.18;103901;1283;75823;-23
2022/07/08 02:25:05;;;;;;;1.50;1.20;;;;;;;12.31;73.64;99108.69;103775;1283;76069;-23
2022/07/08 02:27:32;;;;;;;2.10;1.50;;;;;;;12.01;73.94;99111.96;103844;1283;75443;-24
2022/07/08 02:29:59;;;;;;;3.10;1.20;;;;;;;11.66;74.86;99115.19;103869;1283;61140;-24
2022/07/08 02:32:27;;;;;;;2.80;1.20;;;;;;;11.20;76.85;99116.23;103726;1284;61717;-25
2022/07/08 02:34:54;;;;;;;1.90;0.90;;;;;;;10.82;79.47;99119.73;103910;1283;75736;-24
2022/07/08 02:37:21;;;;;;;1.10;0.80;;;;;;;11.24;79.89;99119.43;104243;1283;75679;-24
2022/07/08 02:39:49;;;;;;;1.80;1.20;;;;;;;11.83;78.26;99122.18;103786;1283;75691;-24
2022/07/08 02:42:16;;;;;;;2.10;1.10;;;;;;;11.90;77.17;99125.86;104088;1283;61060;-24
2022/07/08 02:44:43;;;;;;;1.30;1.10;;;;;;;11.74;77.24;99126.73;103528;1285;62428;-24
2022/07/08 02:47:11;;;;;;;1.40;1.30;;;;;;;11.65;77.77;99127.00;103868;1283;75851;-24
2022/07/08 02:49:38;;;;;;;1.70;1.40;;;;;;;11.68;77.49;99132.79;103891;1283;76953;-24
2022/07/08 02:52:06;;;;;;;1.30;0.70;;;;;;;11.75;76.88;99138.48;103735;1283;75399;-24
2022/07/08 02:54:34;;;;;;;1.30;1.10;;;;;;;12.42;75.96;99138.98;103725;1284;62863;-24
2022/07/08 02:57:01;;;;;;;1.90;1.00;;;;;;;13.35;73.90;99140.18;103673;1284;62436;-24
2022/07/08 02:59:29;;;;;;;1.70;1.30;;;;;;;13.82;70.93;99141.02;103851;1283;74952;-24
2022/07/08 03:01:56;;;;;;;3.90;1.30;;;;;;;13.96;70.11;99137.21;104597;1276;76993;-24
2022/07/08 03:04:24;;;;;;;1.40;1.20;;;;;;;13.96;69.39;99142.64;104519;1276;74386;-24
2022/07/08 03:06:51;;;;;;;2.40;1.40;;;;;;;13.82;69.45;99144.86;104619;1276;61699;-24
2022/07/08 03:09:19;;;;;;;2.10;1.70;;;;;;;13.66;69.82;99142.10;104412;1276;63260;-24
2022/07/08 03:11:46;;;;;;;5.50;1.00;;;;;;;13.68;70.44;99142.75;104234;1277;75574;-24
2022/07/08 03:14:13;;;;;;;5.10;1.40;;;;;;;14.44;69.92;99141.67;104388;1277;76879;-24
2022/07/08 03:16:40;;;;;;;2.00;1.30;;;;;;;15.36;67.79;99142.16;104466;1279;74359;-24
2022/07/08 03:19:08;;;;;;;3.70;1.60;;;;;;;15.83;66.46;99145.55;104464;1276;63107;-24
2022/07/08 03:21:35;;;;;;;5.40;1.60;;;;;;;16.08;65.02;99144.38;104567;1277;63088;-24
2022/07/08 03:24:02;;;;;;;5.90;1.70;;;;;;;16.22;64.71;99147.88;104608;1278;74758;-24
2022/07/08 03:26:30;;;;;;;4.10;1.60;;;;;;;16.22;64.52;99146.13;104524;1279;76759;-25
2022/07/08 03:28:57;;;;;;;2.40;1.50;;;;;;;16.23;64.76;99147.13;104468;1278;74314;-24
2022/07/08 03:31:24;;;;;;;3.90;1.90;;;;;;;16.15;65.04;99149.05;104548;1277;61787;-24
2022/07/08 03:33:52;;;;;;;4.00;1.80;;;;;;;16.11;65.17;99146.88;104650;1277;61983;-24
2022/07/08 03:36:19;;;;;;;2.70;1.40;;;;;;;16.13;65.77;99151.24;104573;1277;75807;-24
2022/07/08 03:38:47;;;;;;;2.60;1.50;;;;;;;16.73;65.30;99151.38;104255;1277;76496;-24
2022/07/08 03:41:20;;;;;;;3.80;1.90;;;;;;;17.49;63.21;99151.33;104439;1276;75342;-24
2022/07/08 03:43:48;;;;;;;2.60;1.90;;;;;;;17.82;62.11;99154.28;104673;1276;61982;-24
2022/07/08 03:46:16;;;;;;;8.10;2.10;;;;;;;17.86;62.19;99150.88;104536;1277;62430;-24
2022/07/08 03:48:43;;;;;;;14.10;2.70;;;;;;;17.85;62.54;99153.24;104671;1277;75757;-24
2022/07/08 03:51:11;;;;;;;7.20;2.00;;;;;;;17.90;62.29;99154.28;104613;1276;76697;-24
2022/07/08 03:53:38;;;;;;;5.70;2.10;;;;;;;17.92;62.78;99154.08;104651;1277;75530;-24
2022/07/08 03:56:06;;;;;;;11.70;2.80;;;;;;;17.98;62.71;99153.44;104539;1276;63105;-24
2022/07/08 03:58:36;;;;;;;5.80;2.60;;;;;;;17.99;63.08;99153.84;104636;1276;61134;-24
2022/07/08 04:01:04;;;;;;;8.90;2.40;;;;;;;18.06;63.32;99152.24;104321;1277;76151;-24
2022/07/08 04:03:32;;;;;;;18.70;3.60;;;;;;;18.18;62.52;99152.85;104295;1279;77066;-24
2022/07/08 04:06:00;;;;;;;9.90;3.10;;;;;;;18.37;62.48;99156.15;104428;1276;75358;-24
2022/07/08 04:08:27;;;;;;;35.70;4.60;;;;;;;18.62;61.78;99154.45;104659;1277;61133;-24
2022/07/08 04:10:55;;;;;;;6.50;2.80;;;;;;;18.84;60.52;99160.50;104722;1276;63088;-24
2022/07/08 04:13:27;;;;;;;9.60;3.10;;;;;;;19.07;60.17;99164.05;104485;1276;74674;-24
2022/07/08 04:15:55;;;;;;;7.70;3.90;;;;;;;19.30;59.81;99163.58;104547;1277;77104;-24
2022/07/08 04:18:24;;;;;;;4.50;3.20;;;;;;;19.25;58.54;99163.23;104308;1277;75251;-24
2022/07/08 04:20:53;;;;;;;4.50;3.10;;;;;;;19.23;57.93;99164.23;104428;1276;62863;-24
2022/07/08 04:23:20;;;;;;;4.60;3.20;;;;;;;19.00;58.31;99160.31;104647;1277;63062;-24
2022/07/08 04:25:57;;;;;;;3.80;3.00;;;;;;;19.02;58.00;99158.66;104600;1277;74296;-24
2022/07/08 04:28:24;;;;;;;7.00;3.10;;;;;;;19.29;58.07;99155.61;104427;1276;75798;-24
2022/07/08 04:30:52;;;;;;;5.10;3.10;;;;;;;19.39;57.17;99158.29;104461;1279;75438;-24
2022/07/08 04:33:20;;;;;;;8.20;2.90;;;;;;;19.47;57.31;99155.23;104613;1276;61145;-24
2022/07/08 04:35:47;;;;;;;5.10;2.80;;;;;;;19.35;56.75;99156.67;104581;1277;61223;-24
2022/07/08 04:38:15;;;;;;;4.60;2.90;;;;;;;19.73;56.54;99157.47;104344;1277;74772;-24
2022/07/08 04:40:42;;;;;;;4.40;3.00;;;;;;;19.85;55.84;99158.75;104291;1276;77164;-24
2022/07/08 04:43:09;;;;;;;2.70;2.20;;;;;;;20.20;55.53;99156.09;104577;1276;75396;-24
2022/07/08 04:45:36;;;;;;;5.10;2.70;;;;;;;20.41;54.46;99154.78;104583;1276;63028;-24
2022/07/08 04:48:06;;;;;;;6.30;2.40;;;;;;;20.47;54.01;99151.89;104203;1277;63079;-23
2022/07/08 04:50:33;;;;;;;4.90;2.80;;;;;;;20.44;53.79;99150.38;104408;1277;76304;-23
2022/07/08 04:53:00;;;;;;;3.50;2.40;;;;;;;20.56;53.49;99150.60;104372;1276;77082;-23
2022/07/08 04:55:28;;;;;;;6.80;2.70;;;;;;;20.47;53.82;99147.33;104177;1278;73763;-23
2022/07/08 04:58:00;;;;;;;7.10;2.30;;;;;;;20.41;54.08;99149.49;104204;1277;62253;-23
2022/07/08 05:00:30;;;;;;;3.90;2.20;;;;;;;20.83;53.31;99147.50;104344;1278;62217;-23
2022/07/08 05:02:58;;;;;;;3.80;1.80;;;;;;;21.01;52.73;99148.44;104528;1278;75638;-23
2022/07/08 05:05:26;;;;;;;3.40;1.40;;;;;;;21.05;51.63;99148.42;104541;1279;76080;-23
2022/07/08 05:07:53;;;;;;;5.50;1.80;;;;;;;21.28;52.35;99149.23;104537;1277;74364;-23
2022/07/08 05:10:24;;;;;;;5.80;1.60;;;;;;;21.52;51.05;99155.86;104549;1277;61839;-23
2022/07/08 05:12:53;;;;;;;5.70;1.60;;;;;;;21.49;50.91;99152.30;104546;1277;62791;-23
2022/07/08 05:15:21;;;;;;;3.90;1.10;;;;;;;21.58;50.37;99151.14;104477;1278;74572;-23
2022/07/08 05:17:48;;;;;;;1.90;1.40;;;;;;;21.74;49.98;99153.64;104646;1278;77101;-23
2022/07/08 05:20:16;;;;;;;2.30;1.20;;;;;;;21.75;49.56;99155.52;104489;1277;74088;-24
2022/07/08 05:22:43;;;;;;;3.90;1.40;;;;;;;21.73;49.18;99157.22;104564;1279;63198;-23
2022/07/08 05:25:11;;;;;;;1.90;1.30;;;;;;;21.74;49.10;99154.14;104458;1276;61500;-23
2022/07/08 05:27:38;;;;;;;3.70;1.50;;;;;;;21.15;50.50;99151.80;104324;1276;76387;-23
2022/07/08 05:30:07;;;;;;;4.10;1.20;;;;;;;21.65;50.13;99146.79;104404;1276;77183;-23
2022/07/08 05:32:36;;;;;;;3.40;1.10;;;;;;;21.89;48.47;99144.80;104499;1276;74439;-22
2022/07/08 05:35:04;;;;;;;2.50;1.40;;;;;;;21.34;49.13;99142.85;104579;1276;61034;-23
2022/07/08 05:37:32;;;;;;;6.20;1.40;;;;;;;20.99;50.31;99144.34;104328;1276;63116;-23
2022/07/08 05:39:59;;;;;;;5.50;1.70;;;;;;;20.94;51.16;99144.63;104531;1276;76609;-23
2022/07/08 05:42:26;;;;;;;2.90;1.70;;;;;;;21.44;50.95;99146.44;104346;1276;76172;-23
2022/07/08 05:44:54;;;;;;;5.70;1.50;;;;;;;21.67;49.95;99148.59;104304;1276;75152;-23
2022/07/08 05:47:21;;;;;;;11.30;1.80;;;;;;;21.75;50.88;99144.92;104351;1276;63294;-23
2022/07/08 05:49:50;;;;;;;2.90;2.00;;;;;;;22.18;49.84;99146.59;104316;1277;61151;-23
2022/07/08 05:52:18;;;;;;;3.10;1.50;;;;;;;22.39;48.58;99148.55;104526;1276;75524;-23
2022/07/08 05:54:45;;;;;;;2.70;1.60;;;;;;;22.48;48.76;99148.70;104505;1277;75684;-23
2022/07/08 05:57:13;;;;;;;1.80;1.30;;;;;;;22.52;48.51;99146.64;104347;1276;75349;-23
2022/07/08 05:59:42;;;;;;;1.90;1.10;;;;;;;22.62;48.22;99148.81;104479;1276;61040;-23
2022/07/08 06:02:14;;;;;;;6.30;1.30;;;;;;;22.52;48.34;99147.52;104233;1276;61700;-23
2022/07/08 06:04:41;;;;;;;4.90;1.20;;;;;;;22.67;47.70;99143.71;104491;1275;75312;-23
2022/07/08 06:07:08;;;;;;;2.30;1.40;;;;;;;22.85;46.99;99147.25;104437;1276;77425;-23
2022/07/08 06:09:37;;;;;;;1.90;1.30;;;;;;;22.73;47.58;99144.34;104349;1275;75179;-24
2022/07/08 06:12:05;;;;;;;3.40;1.50;;;;;;;23.11;47.08;99144.31;104603;1274;61935;-23
2022/07/08 06:14:32;;;;;;;1.70;1.30;;;;;;;22.50;46.77;99146.55;104588;1276;63157;-23
2022/07/08 06:16:59;;;;;;;3.40;1.30;;;;;;;21.97;47.91;99149.27;104424;1276;76615;-23
2022/07/08 06:19:27;;;;;;;2.20;1.00;;;;;;;22.80;46.70;99147.13;104509;1277;76991;-25
2022/07/08 06:21:54;;;;;;;4.90;1.20;;;;;;;23.02;45.78;99147.91;104533;1276;75475;-23
2022/07/08 06:24:23;;;;;;;7.00;1.30;;;;;;;23.03;45.57;99147.79;104392;1276;62886;-23
2022/07/08 06:26:51;;;;;;;5.50;2.30;;;;;;;23.31;45.01;99148.05;104570;1276;61841;-23
2022/07/08 06:29:21;;;;;;;2.80;1.30;;;;;;;23.42;44.39;99150.44;104361;1276;76617;-23
2022/07/08 06:31:48;;;;;;;8.10;1.20;;;;;;;23.57;43.85;99147.80;104361;1274;76106;-23
2022/07/08 06:34:17;;;;;;;1.80;0.90;;;;;;;23.47;43.89;99147.33;104560;1275;73948;-23
2022/07/08 06:36:45;;;;;;;3.60;1.00;;;;;;;23.72;43.27;99144.95;104671;1275;61876;-24
2022/07/08 06:39:12;;;;;;;3.00;0.90;;;;;;;24.15;42.92;99147.34;104653;1275;62971;-24
2022/07/08 06:41:39;;;;;;;1.60;1.20;;;;;;;24.48;41.84;99150.20;104479;1276;75220;-24
2022/07/08 06:44:06;;;;;;;2.40;0.90;;;;;;;24.61;41.49;99147.99;104540;1276;76741;-24
2022/07/08 06:46:34;;;;;;;1.70;0.80;;;;;;;24.82;41.56;99145.67;104539;1276;75159;-24
2022/07/08 06:49:01;;;;;;;1.50;1.10;;;;;;;24.96;40.74;99141.35;104360;1274;61152;-24
2022/07/08 06:51:29;;;;;;;3.60;0.90;;;;;;;25.12;41.00;99138.15;104510;1275;62825;-24
2022/07/08 06:56:42;;;;;;;1.60;0.90;;;;;;;24.49;41.91;99137.16;104468;1274;77555;-24
2022/07/08 06:59:10;;;;;;;2.20;1.20;;;;;;;24.39;42.18;99143.21;104605;1276;75414;-24
2022/07/08 07:01:37;;;;;;;1.70;0.90;;;;;;;24.42;41.63;99141.23;104681;1276;61312;-24
2022/07/08 07:04:04;;;;;;;4.40;1.10;;;;;;;24.40;41.97;99141.49;104641;1276;62858;-24
2022/07/08 07:06:32;;;;;;;1.60;1.00;;;;;;;24.46;42.73;99140.39;104432;1276;76297;-24
2022/07/08 07:09:00;;;;;;;3.00;1.00;;;;;;;24.71;40.63;99140.83;104348;1276;76792;-24
2022/07/08 07:11:27;;;;;;;2.20;0.90;;;;;;;24.78;40.61;99140.54;104368;1276;75111;-25
2022/07/08 07:13:54;;;;;;;7.30;1.20;;;;;;;24.92;41.19;99137.65;104364;1276;61807;-24
2022/07/08 07:16:22;;;;;;;2.30;0.90;;;;;;;24.35;40.84;99135.41;104543;1276;62995;-24
2022/07/08 07:18:49;;;;;;;3.40;1.10;;;;;;;24.71;40.68;99135.13;104619;1276;76053;-24
2022/07/08 07:21:17;;;;;;;5.70;1.90;;;;;;;25.00;39.40;99132.23;104278;1277;75925;-24
2022/07/08 07:23:47;;;;;;;2.00;1.20;;;;;;;24.93;39.88;99135.21;104374;1276;74313;-24
2022/07/08 07:26:14;;;;;;;4.20;2.60;;;;;;;24.84;39.11;99135.27;104388;1276;63428;-24
2022/07/08 07:28:42;;;;;;;6.60;3.40;;;;;;;25.02;38.15;99137.04;104381;1276;61073;-24
2022/07/08 07:31:11;;;;;;;4.20;2.10;;;;;;;24.88;37.60;99135.52;104677;1276;76693;-24
2022/07/08 07:33:39;;;;;;;2.20;1.00;;;;;;;25.09;37.45;99131.27;104595;1276;77040;-24
2022/07/08 07:36:07;;;;;;;5.20;1.80;;;;;;;25.36;36.79;99130.74;104425;1276;74361;-24
2022/07/08 07:38:34;;;;;;;3.50;0.90;;;;;;;25.04;37.35;99129.96;104248;1276;61024;-24
2022/07/08 07:41:02;;;;;;;8.60;5.50;;;;;;;24.65;38.28;99130.60;104266;1276;61063;-24
2022/07/08 07:43:29;;;;;;;6.40;2.60;;;;;;;24.49;38.92;99132.71;104746;1276;76396;-24
2022/07/08 07:45:56;;;;;;;2.20;1.10;;;;;;;25.18;37.74;99128.70;104575;1276;75705;-24
2022/07/08 07:48:24;;;;;;;4.60;2.00;;;;;;;25.28;37.32;99125.73;104401;1276;73322;-24
2022/07/08 07:50:52;;;;;;;3.20;1.30;;;;;;;25.38;36.59;99123.17;104375;1276;61986;-24
2022/07/08 07:53:20;;;;;;;17.80;10.50;;;;;;;25.05;37.56;99124.72;104842;1273;63052;-24
2022/07/08 07:55:47;;;;;;;14.50;6.60;;;;;;;25.13;37.53;99128.21;104777;1273;76117;-24
2022/07/08 07:58:15;;;;;;;9.10;1.20;;;;;;;24.85;35.59;99127.48;104646;1273;76027;-24
2022/07/08 08:00:43;;;;;;;4.30;2.30;;;;;;;25.29;36.43;99123.27;105034;1273;75323;-24
2022/07/08 08:03:10;;;;;;;2.40;0.80;;;;;;;25.48;35.37;99124.70;104819;1273;61267;-24
2022/07/08 08:05:42;;;;;;;2.60;0.90;;;;;;;25.63;35.76;99120.52;104745;1274;62735;-23
2022/07/08 08:08:10;;;;;;;2.60;0.70;;;;;;;25.71;35.59;99118.99;104987;1273;76577;-23
2022/07/08 08:10:37;;;;;;;5.50;1.00;;;;;;;25.99;35.39;99117.64;104808;1273;76331;-23
2022/07/08 08:13:05;;;;;;;3.50;1.90;;;;;;;25.58;35.87;99115.02;105094;1273;75457;-23
2022/07/08 08:15:32;;;;;;;8.80;3.40;;;;;;;25.71;36.37;99114.77;104671;1273;62803;-23
2022/07/08 08:18:00;;;;;;;6.70;5.80;;;;;;;26.18;34.79;99112.49;104708;1273;61455;-23
2022/07/08 08:20:29;;;;;;;15.00;11.40;;;;;;;25.97;33.78;99111.39;104683;1273;76527;-23
2022/07/08 08:22:58;;;;;;;15.10;10.70;;;;;;;26.08;31.91;99109.50;104674;1273;74887;-23
2022/07/08 08:25:46;;;;;;;4.50;3.30;;;;;;;24.71;33.57;99111.27;104752;1273;75210;-23
2022/07/08 08:28:15;;;;;;;2.00;1.40;;;;;;;25.75;34.11;99113.73;104965;1273;62415;-23
2022/07/08 08:30:44;;;;;;;5.90;3.40;;;;;;;26.14;31.87;99109.88;104947;1273;63160;-23
2022/07/08 08:33:13;;;;;;;1.70;1.00;;;;;;;26.08;32.83;99105.39;104984;1273;76389;-23
2022/07/08 08:35:40;;;;;;;15.60;10.90;;;;;;;26.79;31.83;99103.19;105080;1273;77001;-23
2022/07/08 08:38:08;;;;;;;8.40;7.60;;;;;;;27.21;30.56;99096.99;104782;1273;74399;-24
2022/07/08 08:40:38;;;;;;;2.30;1.50;;;;;;;26.78;29.43;99094.39;104643;1273;63039;-23
2022/07/08 08:43:05;;;;;;;1.40;0.90;;;;;;;26.11;30.92;99092.60;104649;1273;63090;-26
2022/07/08 08:45:42;;;;;;;230.70;56.10;;;;;;;25.61;32.55;99097.23;105090;1273;76603;-24
2022/07/08 08:48:11;;;;;;;6.10;2.90;;;;;;;25.06;33.72;99096.55;104780;1273;77084;-24
2022/07/08 08:50:55;;;;;;;2.20;1.60;;;;;;;25.19;32.61;99094.80;104896;1273;73257;-24
2022/07/08 08:53:27;;;;;;;6.60;1.40;;;;;;;25.82;30.93;99091.34;104721;1273;61759;-24
2022/07/08 08:55:56;;;;;;;3.20;0.60;;;;;;;25.38;30.99;99092.58;104727;1273;63050;-24
2022/07/08 08:58:24;;;;;;;2.00;1.10;;;;;;;25.67;32.22;99090.02;104740;1273;76559;-24
2022/07/08 09:00:51;;;;;;;2.60;1.60;;;;;;;25.36;32.81;99090.87;104847;1273;76078;-23
2022/07/08 09:03:19;;;;;;;8.20;3.20;;;;;;;25.93;33.49;99088.91;104767;1273;75243;-23
2022/07/08 09:05:48;;;;;;;55.80;5.50;;;;;;;26.51;33.22;99082.95;104921;1273;62959;-23
2022/07/08 09:08:15;;;;;;;14.60;7.20;;;;;;;26.93;31.96;99080.45;104693;1273;63072;-24
2022/07/08 09:10:43;;;;;;;13.50;8.40;;;;;;;25.79;31.14;99085.00;104570;1273;76272;-24
2022/07/08 09:13:14;;;;;;;2.80;1.30;;;;;;;25.64;32.36;99088.48;104730;1273;77218;-23
2022/07/08 09:15:43;;;;;;;2.10;0.90;;;;;;;25.57;33.31;99089.59;104667;1272;75631;-24
2022/07/08 09:18:21;;;;;;;1.20;0.70;;;;;;;25.20;33.02;99087.60;104579;1273;61150;-24
2022/07/08 09:20:53;;;;;;;2.10;0.70;;;;;;;25.02;33.82;99084.79;104613;1274;61958;-24
2022/07/08 09:23:31;;;;;;;1.10;0.80;;;;;;;24.83;34.07;99085.89;104662;1273;76580;-24
2022/07/08 09:26:04;;;;;;;8.30;1.00;;;;;;;24.80;33.60;99083.83;104689;1274;77000;-23
2022/07/08 09:28:43;;;;;;;1.60;0.90;;;;;;;24.50;34.27;99087.71;104703;1273;74096;-23
2022/07/08 09:31:14;;;;;;;1.10;0.70;;;;;;;24.53;34.75;99088.76;104755;1274;61215;-23
2022/07/08 09:33:43;;;;;;;1.30;0.70;;;;;;;24.46;35.30;99087.63;104736;1273;61032;-23
2022/07/08 09:36:10;;;;;;;2.90;0.60;;;;;;;24.39;35.19;99085.78;104847;1273;76591;-24
2022/07/08 09:38:39;;;;;;;3.20;1.70;;;;;;;24.18;34.62;99082.42;104741;1273;77054;-24
2022/07/08 09:41:09;;;;;;;6.10;1.20;;;;;;;23.78;35.38;99084.69;104403;1273;75606;-23
2022/07/08 09:43:50;;;;;;;15.50;8.30;;;;;;;24.68;34.40;99077.51;104477;1273;62785;-24
2022/07/08 09:46:18;;;;;;;2.20;1.00;;;;;;;25.64;33.54;99080.97;104661;1273;61692;-24
2022/07/08 09:48:45;;;;;;;2.60;0.90;;;;;;;26.17;32.30;99081.35;104793;1273;75521;-24
2022/07/08 09:51:15;;;;;;;2.00;0.80;;;;;;;26.69;30.34;99074.16;104594;1274;77007;-24
2022/07/08 09:53:43;;;;;;;2.60;1.80;;;;;;;26.81;29.83;99070.86;104622;1273;74462;-24
2022/07/08 09:56:10;;;;;;;3.70;1.50;;;;;;;26.97;28.70;99072.20;104764;1273;63320;-24
2022/07/08 09:58:38;;;;;;;0.80;0.60;;;;;;;26.68;27.84;99069.21;105059;1273;61770;-24
2022/07/08 10:01:06;;;;;;;1.90;0.80;;;;;;;26.88;28.76;99073.68;104763;1273;76250;-24
2022/07/08 10:03:35;;;;;;;3.10;1.30;;;;;;;26.51;28.15;99073.64;105145;1273;76925;-24
2022/07/08 10:06:03;;;;;;;2.00;0.90;;;;;;;26.25;28.46;99076.41;104798;1273;74593;-24
2022/07/08 10:08:31;;;;;;;2.90;0.70;;;;;;;26.51;28.29;99070.75;104747;1273;63130;-25
2022/07/08 10:10:59;;;;;;;1.20;0.90;;;;;;;27.79;27.65;99062.73;104679;1273;62521;-24
2022/07/08 10:13:26;;;;;;;1.40;1.00;;;;;;;28.39;27.09;99061.75;104574;1273;76317;-24
2022/07/08 10:15:56;;;;;;;1.70;0.90;;;;;;;28.28;28.04;99064.44;104632;1273;76240;-24
2022/07/08 10:18:31;;;;;;;3.00;0.90;;;;;;;27.93;27.96;99057.08;104697;1273;74133;-24
2022/07/08 10:20:58;;;;;;;2.90;1.00;;;;;;;27.48;28.80;99052.81;104676;1273;61843;-24
2022/07/08 10:23:29;;;;;;;2.90;1.40;;;;;;;27.00;28.81;99052.36;104835;1273;62328;-24
2022/07/08 10:25:57;;;;;;;6.20;1.10;;;;;;;26.92;29.47;99047.65;104636;1273;76482;-24
2022/07/08 10:28:38;;;;;;;4.60;1.30;;;;;;;27.57;28.47;99053.02;104681;1274;75806;-24
2022/07/08 10:31:22;;;;;;;1.60;0.80;;;;;;;28.44;27.40;99053.05;104334;1273;74644;-24
2022/07/08 10:33:50;;;;;;;1.90;0.90;;;;;;;28.72;27.51;99045.81;104660;1273;61161;-24
2022/07/08 10:36:19;;;;;;;3.10;0.90;;;;;;;28.45;27.83;99048.98;105070;1273;61767;-24
2022/07/08 10:38:47;;;;;;;2.20;2.00;;;;;;;28.02;27.28;99047.39;104601;1273;76581;-24
2022/07/08 10:41:19;;;;;;;2.10;1.00;;;;;;;28.67;26.96;99044.31;104510;1274;77050;-24
2022/07/08 10:43:53;;;;;;;4.00;2.80;;;;;;;29.41;26.71;99042.34;104729;1274;75281;-24
2022/07/08 10:46:27;;;;;;;0.80;0.70;;;;;;;29.73;25.99;99040.27;104805;1274;61800;-24
2022/07/08 10:48:59;;;;;;;2.80;1.00;;;;;;;29.13;25.96;99043.04;105018;1273;63118;-24
2022/07/08 10:51:29;;;;;;;0.80;0.70;;;;;;;28.73;26.32;99045.69;104633;1273;76590;-24
2022/07/08 10:54:08;;;;;;;1.30;0.80;;;;;;;28.17;27.36;99047.17;104716;1273;76971;-24
2022/07/08 10:56:56;;;;;;;5.80;0.90;;;;;;;28.20;27.28;99047.84;104709;1273;75248;-24
2022/07/08 10:59:28;;;;;;;1.70;0.80;;;;;;;28.06;27.53;99046.77;104930;1273;62847;-24
2022/07/08 11:01:59;;;;;;;3.60;1.30;;;;;;;27.80;28.03;99047.40;104602;1273;62069;-24
2022/07/08 11:04:36;;;;;;;1.80;0.90;;;;;;;27.29;28.53;99046.98;104482;1273;75498;-24
2022/07/08 11:07:24;;;;;;;1.90;1.00;;;;;;;26.80;29.83;99049.42;104622;1273;76978;-24
2022/07/08 11:10:08;;;;;;;2.70;1.60;;;;;;;27.17;29.79;99048.38;104590;1273;75213;-24
2022/07/08 11:12:44;;;;;;;3.00;1.60;;;;;;;27.59;29.56;99045.03;104577;1274;61487;-24
2022/07/08 11:15:12;;;;;;;2.40;1.10;;;;;;;28.11;28.87;99035.36;104481;1273;63070;-25
2022/07/08 11:17:40;;;;;;;3.90;1.00;;;;;;;27.60;29.27;99035.27;104467;1273;76590;-24
2022/07/08 11:20:13;;;;;;;0.90;0.70;;;;;;;27.47;29.09;99039.16;104647;1273;75839;-24
2022/07/08 11:22:42;;;;;;;1.40;0.90;;;;;;;28.17;28.14;99037.92;104722;1274;75528;-24
2022/07/08 11:25:11;;;;;;;1.60;0.90;;;;;;;28.28;28.04;99038.58;104801;1274;61891;-24
2022/07/08 11:27:38;;;;;;;2.90;1.10;;;;;;;27.78;27.61;99035.23;104771;1273;63043;-24
2022/07/08 11:30:12;;;;;;;2.30;1.00;;;;;;;27.21;28.72;99039.87;104919;1273;75617;-24
2022/07/08 11:32:40;;;;;;;2.20;1.20;;;;;;;26.83;28.73;99033.89;104528;1273;75665;-23
2022/07/08 11:35:08;;;;;;;5.90;2.70;;;;;;;26.14;30.00;99040.48;104529;1273;73844;-23